KBMT/BMT METAR and TAF weather

Enter ICAO airport designator
Station Type Date Time Source
KBMT METAR 2020/09/26 23:50 UTC NOAA

KBMT 262350Z AUTO 19005KT 10SM CLR 27/20 A2988 RMK AO2 T02660203 10307 20266


Station Type Date Time Source
KBMT Decoded METAR 2020/09/26 23:50 UTC NOAA

Station name not available
Sep 26, 2020 - 07:50 PM EDT / 2020.09.26 2350 UTC
Wind: from the S (190 degrees) at 6 MPH (5 KT):0
Visibility: 10 mile(s):0
Sky conditions: clear
Temperature: 79.9 F (26.6 C)
Dew Point: 68.5 F (20.3 C)
Relative Humidity: 68%
Pressure (altimeter): 29.88 in. Hg (1011 hPa)
ob: KBMT 262350Z AUTO 19005KT 10SM CLR 27/20 A2988 RMK AO2 T02660203 10307 20266
cycle: 0

Station Type Date Time Source
KBMT TAF UTC NOAA

Error!

Example: see airport list